首页
METAR-TAF:

METAR-TAF

机场 :

Bric della Croce

都灵, 意大利

纬度: 45-02N, 经度: 007-44E, 海拔: 709米

当前天气观测

该预报发布于15小时和14分钟前的14:55 UTC
静风
温度 5°C
湿度 100%
气压 1021 hPa
能見度: 1500
阴天层高于2000英尺
轻雾

METAR: LIMK 301455Z 00000KT 1500 BR OVC020 05/05 Q1021 RMK OVC VAL FOSCHIA VIS MIN 1500

时间: 07:09 (06:09 UTC)


TAF: 丢失

超过4000个机场的气象观测和天气预报(METAR&TAF报告)。

可查询的气象台以黄色和红色小点在地图上表示。

将鼠标移到小点上方,可查看气象台名称。

然后点击查看天气观测和预报。

如需切换地图:点击带黑十字的绿色按钮放大地图;点击带横线的绿色按钮缩小地图;或者点击绿色箭头查看邻近地区的地图。


METAR-TAF: